Shore Acres, Washington
Current Conditions -  °F | °C
As of 9:53 PM on Tuesday 21 Oct 2014 (Local Time) from KTIW Reporting Station
Overcast Overcast  
Wind Chill: 59°   Ceiling: 7000
Heat Index: 59°   Visibility: 10mi
Dew Point: 46°   Wind: 14mph
Humidity: 62%   Direction: 170°S
Pressure: 29.79"   Gusts: 28mph
Location:  47.2986°N, 122.616°W
Report Text: KTIW 220453Z AUTO 17012G24KT 10SM OVC070 15/08 A2979 RMK AO2 PK WND 18026/0441 RAB17E34 SLP087 P0000 T01500078
Loading
Personal Weather Stations






























Interactive Weather Map
Tropical Storm Tracking
New forecast layout! Learn more

10-Day Weather Forecast

Advertisements
Track Severe Weather on mobile